createdAt,value
2019-01-06T00:00:32.947Z,90.61
2019-01-06T00:03:06.630Z,90.40
2019-01-06T00:05:51.009Z,90.45
2019-01-06T00:08:24.668Z,90.60
2019-01-06T00:10:52.569Z,91.09
2019-01-06T00:13:23.090Z,91.20
2019-01-06T00:15:56.736Z,91.38
2019-01-06T00:18:24.785Z,91.90
2019-01-06T00:21:04.526Z,91.87
2019-01-06T00:23:32.542Z,91.98
2019-01-06T00:26:06.358Z,92.13
2019-01-06T00:28:49.985Z,92.59
2019-01-06T00:31:26.708Z,93.23
2019-01-06T00:33:57.403Z,93.43
2019-01-06T00:36:41.694Z,93.11
2019-01-06T00:39:09.717Z,93.10
2019-01-06T00:41:52.686Z,93.12
2019-01-06T00:44:23.445Z,93.21
2019-01-06T00:47:07.772Z,93.12
2019-01-06T00:49:35.695Z,92.91
2019-01-06T00:52:12.782Z,92.42
2019-01-06T00:54:46.578Z,92.23
2019-01-06T00:57:20.119Z,92.28
2019-01-06T00:59:53.779Z,91.92
2019-01-06T01:02:21.715Z,91.94
2019-01-06T01:04:58.622Z,91.73
2019-01-06T01:07:44.513Z,92.09
2019-01-06T01:10:20.276Z,92.74
2019-01-06T01:12:48.299Z,92.87
2019-01-06T01:15:32.635Z,92.71
2019-01-06T01:18:06.359Z,92.57
2019-01-06T01:20:51.980Z,92.16
2019-01-06T01:23:37.867Z,91.85
2019-01-06T01:26:05.786Z,91.48
2019-01-06T01:28:36.355Z,91.26
2019-01-06T01:31:19.043Z,91.02
2019-01-06T01:33:46.973Z,90.96
2019-01-06T01:36:26.795Z,90.83
2019-01-06T01:39:13.048Z,90.73
2019-01-06T01:41:41.004Z,90.61
2019-01-06T01:44:08.895Z,90.73
2019-01-06T01:46:52.958Z,90.85
2019-01-06T01:49:23.741Z,91.00
2019-01-06T01:51:54.491Z,91.23
2019-01-06T01:54:38.843Z,91.96
2019-01-06T01:57:24.614Z,92.50
2019-01-06T01:59:52.638Z,93.38
2019-01-06T02:02:29.490Z,93.58
2019-01-06T02:05:13.801Z,94.04
2019-01-06T02:07:56.640Z,94.17
2019-01-06T02:10:40.720Z,94.35
2019-01-06T02:13:14.486Z,94.83
2019-01-06T02:15:47.990Z,95.14
2019-01-06T02:18:18.809Z,95.32
2019-01-06T02:20:49.239Z,95.06
2019-01-06T02:23:33.358Z,94.76
2019-01-06T02:26:19.034Z,94.54
2019-01-06T02:28:55.466Z,94.30
2019-01-06T02:31:28.907Z,94.30
2019-01-06T02:34:08.658Z,94.44
2019-01-06T02:36:42.443Z,94.61
2019-01-06T02:39:16.467Z,94.38
2019-01-06T02:42:00.582Z,94.19
2019-01-06T02:44:28.643Z,94.03
2019-01-06T02:46:59.463Z,93.75
2019-01-06T02:49:43.803Z,93.66
2019-01-06T02:52:31.701Z,93.61
2019-01-06T02:54:59.716Z,93.48
2019-01-06T02:57:30.244Z,93.19
2019-01-06T02:59:58.175Z,93.12
2019-01-06T03:02:27.167Z,92.94
2019-01-06T03:04:55.115Z,92.66
2019-01-06T03:07:28.681Z,92.43
2019-01-06T03:10:11.393Z,92.33
2019-01-06T03:12:42.198Z,92.20
2019-01-06T03:15:12.869Z,92.00
2019-01-06T03:17:43.491Z,92.61
2019-01-06T03:20:20.123Z,92.44
2019-01-06T03:22:50.940Z,92.33
2019-01-06T03:25:21.600Z,92.25
2019-01-06T03:27:52.322Z,92.26
2019-01-06T03:30:22.740Z,92.35
2019-01-06T03:33:07.141Z,92.05
2019-01-06T03:35:52.845Z,91.60
2019-01-06T03:38:20.755Z,91.08
2019-01-06T03:41:00.710Z,90.99
2019-01-06T03:43:34.540Z,90.94
2019-01-06T03:46:05.199Z,90.96
2019-01-06T03:48:35.862Z,91.23
2019-01-06T03:51:09.665Z,91.31
2019-01-06T03:53:37.653Z,91.04
2019-01-06T03:56:22.094Z,91.00
2019-01-06T03:58:55.901Z,90.90
2019-01-06T04:01:26.468Z,91.06
2019-01-06T04:03:54.387Z,91.77
2019-01-06T04:06:22.318Z,92.42
2019-01-06T04:08:59.355Z,92.71
2019-01-06T04:11:33.055Z,92.93
2019-01-06T04:14:09.546Z,92.95
2019-01-06T04:16:40.487Z,92.79
2019-01-06T04:19:26.456Z,92.59
2019-01-06T04:22:03.595Z,92.67
2019-01-06T04:24:48.253Z,92.93
2019-01-06T04:27:32.771Z,93.23
2019-01-06T04:30:17.496Z,93.43
2019-01-06T04:32:57.295Z,93.56
2019-01-06T04:35:33.797Z,93.54
2019-01-06T04:38:01.731Z,93.51
2019-01-06T04:40:29.639Z,93.77
2019-01-06T04:43:00.074Z,93.73
2019-01-06T04:45:34.013Z,93.60
2019-01-06T04:48:01.983Z,93.32
2019-01-06T04:50:29.905Z,93.00
2019-01-06T04:53:14.401Z,92.99
2019-01-06T04:55:45.074Z,92.87
2019-01-06T04:58:15.529Z,92.70
2019-01-06T05:00:59.883Z,92.80
2019-01-06T05:03:39.654Z,92.83
2019-01-06T05:06:23.929Z,92.71
2019-01-06T05:09:09.622Z,92.71
2019-01-06T05:11:55.434Z,92.67
2019-01-06T05:14:26.119Z,92.56
2019-01-06T05:17:05.877Z,92.43
2019-01-06T05:19:45.340Z,92.27
2019-01-06T05:22:13.366Z,92.10
2019-01-06T05:24:57.407Z,91.79
2019-01-06T05:27:25.330Z,91.73
2019-01-06T05:30:09.448Z,91.44
2019-01-06T05:32:53.654Z,91.92
2019-01-06T05:35:30.472Z,91.71
2019-01-06T05:38:01.198Z,91.76
2019-01-06T05:40:41.035Z,91.70
2019-01-06T05:43:36.060Z,91.85
2019-01-06T05:46:19.603Z,92.21
2019-01-06T05:48:53.405Z,92.19
2019-01-06T05:51:21.298Z,92.67
2019-01-06T05:54:05.418Z,93.01
2019-01-06T05:56:33.311Z,93.58
2019-01-06T05:59:07.067Z,93.61
2019-01-06T06:01:40.503Z,93.45
2019-01-06T06:04:10.956Z,93.28
2019-01-06T06:06:56.924Z,93.25
2019-01-06T06:09:39.528Z,93.03
2019-01-06T06:12:13.377Z,92.95
2019-01-06T06:14:43.931Z,93.43
2019-01-06T06:17:17.603Z,93.64
2019-01-06T06:19:45.530Z,93.92
2019-01-06T06:22:13.508Z,94.36
2019-01-06T06:24:41.430Z,94.25
2019-01-06T06:27:15.206Z,93.86
2019-01-06T06:29:59.537Z,94.54
2019-01-06T06:32:39.447Z,95.07
2019-01-06T06:35:23.754Z,95.01
2019-01-06T06:37:54.469Z,95.10
2019-01-06T06:40:22.357Z,96.13
2019-01-06T06:42:50.315Z,96.25
2019-01-06T06:45:27.042Z,96.24
2019-01-06T06:48:11.491Z,96.16
2019-01-06T06:50:43.322Z,95.95
2019-01-06T06:53:11.268Z,95.57
2019-01-06T06:55:55.707Z,95.59
2019-01-06T06:58:32.295Z,95.75
2019-01-06T07:01:06.786Z,95.55
2019-01-06T07:03:58.746Z,95.18
2019-01-06T07:06:26.673Z,95.36
2019-01-06T07:09:11.094Z,95.45
2019-01-06T07:11:55.435Z,95.53
2019-01-06T07:14:41.580Z,95.78
2019-01-06T07:17:41.948Z,95.60
2019-01-06T07:20:26.095Z,95.47
2019-01-06T07:22:54.022Z,95.20
2019-01-06T07:25:30.976Z,94.96
2019-01-06T07:28:01.463Z,94.61
2019-01-06T07:30:29.401Z,94.64
2019-01-06T07:33:09.157Z,94.72
2019-01-06T07:35:45.706Z,94.19
2019-01-06T07:38:19.436Z,93.26
2019-01-06T07:40:53.179Z,93.25
2019-01-06T07:43:35.960Z,92.96
2019-01-06T07:46:09.562Z,93.64
2019-01-06T07:48:52.398Z,93.89
2019-01-06T07:51:23.180Z,94.15
2019-01-06T07:53:51.130Z,93.46
2019-01-06T07:56:19.110Z,93.61
2019-01-06T07:59:03.474Z,94.54
2019-01-06T08:01:34.203Z,94.55
2019-01-06T08:04:18.510Z,95.05
2019-01-06T08:06:46.436Z,95.61
2019-01-06T08:09:14.363Z,95.95
2019-01-06T08:11:42.304Z,96.04
2019-01-06T08:14:10.336Z,95.78
2019-01-06T08:16:44.046Z,95.40
2019-01-06T08:19:17.647Z,94.85
2019-01-06T08:21:57.221Z,94.06
2019-01-06T08:24:25.137Z,93.70
2019-01-06T08:26:55.821Z,93.55
2019-01-06T08:29:38.398Z,93.38
2019-01-06T08:32:24.259Z,93.06
2019-01-06T08:34:52.174Z,92.83
2019-01-06T08:37:36.474Z,92.58
2019-01-06T08:40:17.139Z,92.45
2019-01-06T08:43:03.135Z,92.09
2019-01-06T08:45:34.359Z,92.12
2019-01-06T08:48:20.337Z,91.85
2019-01-06T08:51:00.187Z,91.42
2019-01-06T08:53:28.102Z,91.15
2019-01-06T08:56:12.541Z,90.61
2019-01-06T08:58:49.282Z,90.84
2019-01-06T09:01:26.206Z,89.97
2019-01-06T09:04:10.248Z,89.75
2019-01-06T09:06:40.988Z,89.91
2019-01-06T09:09:26.659Z,91.39
2019-01-06T09:12:06.274Z,91.39
2019-01-06T09:14:50.321Z,91.01
2019-01-06T09:17:20.910Z,90.27
2019-01-06T09:19:50.543Z,90.55
2019-01-06T09:22:27.162Z,90.66
2019-01-06T09:25:12.979Z,90.32
2019-01-06T09:27:55.883Z,90.89
2019-01-06T09:30:23.822Z,90.94
2019-01-06T09:32:57.407Z,90.48
2019-01-06T09:35:25.584Z,90.65
2019-01-06T09:37:53.516Z,90.60
2019-01-06T09:40:30.359Z,90.49
2019-01-06T09:42:58.299Z,89.94
2019-01-06T09:45:26.198Z,89.50
2019-01-06T09:47:54.146Z,89.33
2019-01-06T09:50:30.668Z,89.15
2019-01-06T09:53:07.423Z,89.38
2019-01-06T09:55:38.099Z,89.39
2019-01-06T09:58:17.687Z,88.91
2019-01-06T10:00:54.565Z,88.88
2019-01-06T10:03:22.468Z,88.72
2019-01-06T10:06:06.903Z,88.72
2019-01-06T10:08:43.726Z,88.94
2019-01-06T10:11:23.206Z,88.88
2019-01-06T10:13:51.223Z,88.56
2019-01-06T10:16:27.766Z,88.28
2019-01-06T10:19:12.102Z,88.34
2019-01-06T10:21:58.021Z,88.39
2019-01-06T10:24:32.107Z,88.52
2019-01-06T10:26:59.986Z,89.23
2019-01-06T10:29:37.056Z,89.52
2019-01-06T10:32:04.956Z,90.13
2019-01-06T10:34:35.606Z,90.22
2019-01-06T10:37:19.663Z,90.07
2019-01-06T10:39:47.583Z,90.10
2019-01-06T10:42:30.119Z,90.23
2019-01-06T10:45:06.998Z,90.66
2019-01-06T10:47:40.562Z,91.25
2019-01-06T10:50:28.379Z,91.32
2019-01-06T10:52:56.367Z,89.87
2019-01-06T10:55:40.722Z,89.96
2019-01-06T10:58:23.610Z,89.78
2019-01-06T11:01:07.757Z,89.81
2019-01-06T11:03:50.434Z,89.24
2019-01-06T11:06:18.332Z,89.39
2019-01-06T11:08:48.777Z,90.16
2019-01-06T11:11:32.848Z,89.65
2019-01-06T11:14:00.760Z,89.06
2019-01-06T11:16:45.176Z,89.38
2019-01-06T11:19:15.639Z,89.35
2019-01-06T11:21:46.366Z,88.62
2019-01-06T11:24:14.307Z,88.78
2019-01-06T11:26:58.758Z,89.10
2019-01-06T11:29:43.138Z,89.43
2019-01-06T11:32:19.889Z,89.23
2019-01-06T11:34:56.378Z,88.37
2019-01-06T11:37:33.135Z,88.79
2019-01-06T11:40:18.067Z,89.53
2019-01-06T11:43:02.517Z,90.26
2019-01-06T11:45:33.209Z,90.97
2019-01-06T11:48:07.074Z,89.16
2019-01-06T11:50:51.650Z,89.39
2019-01-06T11:53:19.608Z,88.22
2019-01-06T11:55:53.847Z,88.78
2019-01-06T11:58:27.533Z,87.88
2019-01-06T12:01:11.622Z,88.41
2019-01-06T12:03:42.257Z,88.22
2019-01-06T12:06:10.218Z,88.66
2019-01-06T12:08:44.031Z,88.83
2019-01-06T12:11:14.523Z,88.32
2019-01-06T12:13:42.517Z,89.01
2019-01-06T12:16:27.318Z,88.46
2019-01-06T12:19:00.849Z,87.85
2019-01-06T12:21:45.474Z,87.82
2019-01-06T12:24:29.773Z,87.50
2019-01-06T12:27:00.442Z,86.69
2019-01-06T12:29:39.970Z,86.40
2019-01-06T12:32:07.886Z,86.75
2019-01-06T12:34:41.489Z,85.82
2019-01-06T12:37:15.053Z,86.22
2019-01-06T12:39:59.546Z,86.47
2019-01-06T12:42:39.619Z,86.37
2019-01-06T12:45:07.816Z,85.90
2019-01-06T12:47:35.847Z,86.14
2019-01-06T12:50:07.841Z,86.86
2019-01-06T12:52:52.011Z,86.88
2019-01-06T12:55:36.370Z,88.04
2019-01-06T12:58:20.847Z,89.43
2019-01-06T13:01:04.978Z,89.46
2019-01-06T13:03:32.923Z,90.67
2019-01-06T13:06:17.176Z,90.53
2019-01-06T13:09:03.087Z,90.41
2019-01-06T13:11:47.643Z,90.39
2019-01-06T13:14:18.420Z,90.13
2019-01-06T13:16:46.490Z,90.50
2019-01-06T13:19:14.491Z,90.61
2019-01-06T13:21:44.917Z,90.58
2019-01-06T13:24:27.773Z,90.87
2019-01-06T13:27:01.687Z,90.25
2019-01-06T13:29:32.426Z,89.64
2019-01-06T13:32:16.845Z,89.96
2019-01-06T13:34:59.699Z,90.09
2019-01-06T13:37:43.874Z,90.61
2019-01-06T13:40:17.706Z,90.97
2019-01-06T13:42:45.710Z,91.03
2019-01-06T13:45:16.535Z,92.32
2019-01-06T13:47:57.262Z,92.19
2019-01-06T13:50:25.322Z,92.30
2019-01-06T13:53:09.654Z,91.74
2019-01-06T13:55:46.562Z,92.83
2019-01-06T13:58:30.700Z,92.87
2019-01-06T14:01:04.314Z,92.65
2019-01-06T14:03:44.383Z,93.53
2019-01-06T14:06:28.543Z,93.51
2019-01-06T14:09:08.310Z,94.02
2019-01-06T14:11:38.735Z,94.18
2019-01-06T14:14:15.920Z,93.90
2019-01-06T14:16:55.514Z,93.83
2019-01-06T14:19:29.233Z,93.76
2019-01-06T14:22:05.868Z,94.28
2019-01-06T14:24:51.533Z,94.31
2019-01-06T14:27:31.241Z,94.04
2019-01-06T14:30:05.100Z,94.28
2019-01-06T14:32:49.475Z,94.35
2019-01-06T14:35:17.505Z,94.71
2019-01-06T14:37:45.471Z,94.22
2019-01-06T14:40:15.960Z,93.96
2019-01-06T14:42:44.098Z,94.10
2019-01-06T14:45:12.003Z,95.02
2019-01-06T14:47:46.145Z,94.81
2019-01-06T14:50:30.467Z,94.40
2019-01-06T14:53:00.902Z,94.37
2019-01-06T14:55:31.649Z,94.23
2019-01-06T14:58:05.628Z,94.21
2019-01-06T15:00:49.787Z,94.61
2019-01-06T15:03:29.638Z,95.06
2019-01-06T15:06:12.223Z,95.71
2019-01-06T15:08:42.637Z,95.62
2019-01-06T15:11:19.319Z,95.74
2019-01-06T15:13:47.425Z,95.86
2019-01-06T15:16:31.589Z,95.34
2019-01-06T15:19:11.316Z,96.42
2019-01-06T15:21:42.024Z,96.35
2019-01-06T15:24:09.950Z,96.14
2019-01-06T15:26:37.881Z,96.00
2019-01-06T15:29:08.480Z,95.32
2019-01-06T15:31:51.388Z,94.58
2019-01-06T15:34:36.091Z,94.27
2019-01-06T15:37:09.794Z,94.37
2019-01-06T15:39:40.590Z,94.26
2019-01-06T15:42:08.557Z,94.51
2019-01-06T15:44:42.235Z,94.91
2019-01-06T15:47:26.410Z,94.64
2019-01-06T15:50:00.219Z,94.44
2019-01-06T15:52:28.800Z,94.26
2019-01-06T15:54:59.714Z,94.30
2019-01-06T15:57:30.205Z,94.05
2019-01-06T16:00:10.041Z,93.67
2019-01-06T16:02:56.007Z,93.64
2019-01-06T16:05:40.431Z,93.32
2019-01-06T16:08:11.103Z,93.76
2019-01-06T16:10:55.474Z,93.80
2019-01-06T16:13:39.914Z,93.67
2019-01-06T16:16:13.631Z,94.12
2019-01-06T16:18:41.532Z,93.51
2019-01-06T16:21:28.120Z,93.80
2019-01-06T16:24:12.494Z,93.81
2019-01-06T16:26:56.858Z,94.19
2019-01-06T16:29:30.558Z,94.30
2019-01-06T16:32:14.672Z,93.86
2019-01-06T16:34:54.588Z,93.34
2019-01-06T16:37:28.045Z,93.83
2019-01-06T16:39:55.974Z,94.13
2019-01-06T16:42:35.546Z,93.90
2019-01-06T16:45:19.982Z,93.90
2019-01-06T16:48:10.163Z,94.16
2019-01-06T16:50:45.902Z,94.32
2019-01-06T16:53:25.774Z,94.75
2019-01-06T16:55:56.451Z,94.27
2019-01-06T16:58:33.269Z,94.54
2019-01-06T17:01:07.587Z,94.39
2019-01-06T17:03:38.006Z,94.30
2019-01-06T17:06:11.439Z,94.32
2019-01-06T17:08:39.353Z,93.74
2019-01-06T17:11:23.517Z,93.55
2019-01-06T17:14:07.903Z,93.61
2019-01-06T17:16:35.867Z,94.01
2019-01-06T17:19:12.340Z,93.67
2019-01-06T17:21:43.026Z,93.27
2019-01-06T17:24:10.974Z,93.86
2019-01-06T17:26:47.688Z,94.25
2019-01-06T17:29:33.627Z,94.18
2019-01-06T17:32:16.410Z,94.09
2019-01-06T17:34:44.426Z,94.20
2019-01-06T17:37:15.170Z,93.51
2019-01-06T17:39:48.839Z,93.34
2019-01-06T17:42:19.556Z,93.24
2019-01-06T17:44:50.108Z,93.68
2019-01-06T17:47:35.660Z,93.76
2019-01-06T17:50:21.242Z,93.85
2019-01-06T17:53:05.721Z,93.65
2019-01-06T17:55:39.263Z,93.39
2019-01-06T17:58:23.573Z,93.12
2019-01-06T18:00:57.559Z,93.21
2019-01-06T18:03:28.226Z,93.38
2019-01-06T18:05:56.167Z,93.09
2019-01-06T18:08:35.983Z,93.36
2019-01-06T18:11:10.061Z,93.21
2019-01-06T18:13:46.614Z,93.41
2019-01-06T18:16:32.483Z,93.16
2019-01-06T18:19:16.842Z,93.73
2019-01-06T18:21:44.767Z,94.18
2019-01-06T18:24:28.981Z,94.56
2019-01-06T18:26:56.915Z,94.08
2019-01-06T18:29:39.907Z,94.33
2019-01-06T18:32:10.564Z,94.86
2019-01-06T18:34:50.120Z,94.71
2019-01-06T18:37:20.791Z,93.97
2019-01-06T18:40:04.900Z,93.82
2019-01-06T18:42:41.777Z,94.03
2019-01-06T18:45:25.957Z,94.23
2019-01-06T18:48:10.382Z,94.26
2019-01-06T18:50:38.382Z,94.32
2019-01-06T18:53:09.086Z,94.32
2019-01-06T18:55:49.363Z,93.94
2019-01-06T18:58:33.767Z,94.04
2019-01-06T19:01:01.776Z,94.09
2019-01-06T19:03:29.661Z,94.19
2019-01-06T19:06:13.321Z,94.25
2019-01-06T19:08:50.107Z,94.05
2019-01-06T19:11:34.527Z,94.10
2019-01-06T19:14:08.291Z,94.43
2019-01-06T19:16:36.255Z,94.35
2019-01-06T19:19:20.641Z,94.19
2019-01-06T19:22:05.045Z,94.25
2019-01-06T19:24:35.566Z,94.13
2019-01-06T19:27:19.870Z,93.86
2019-01-06T19:29:47.958Z,94.22
2019-01-06T19:32:31.851Z,94.73
2019-01-06T19:34:59.923Z,95.41
2019-01-06T19:37:30.627Z,95.63
2019-01-06T19:40:01.084Z,95.10
2019-01-06T19:42:34.750Z,94.58
2019-01-06T19:45:02.717Z,94.59
2019-01-06T19:47:30.644Z,95.73
2019-01-06T19:50:04.631Z,95.96
2019-01-06T19:52:35.329Z,96.38
2019-01-06T19:55:05.754Z,96.70
2019-01-06T19:57:47.239Z,96.84
2019-01-06T20:00:30.166Z,96.98
2019-01-06T20:03:14.607Z,96.83
2019-01-06T20:05:48.110Z,96.69
2019-01-06T20:08:16.188Z,96.73
2019-01-06T20:11:00.936Z,97.17
2019-01-06T20:13:38.195Z,97.18
2019-01-06T20:16:06.290Z,97.25
2019-01-06T20:18:52.250Z,97.17
2019-01-06T20:21:35.202Z,97.43
2019-01-06T20:24:09.218Z,97.22
2019-01-06T20:26:53.465Z,97.54
2019-01-06T20:29:38.206Z,97.85
2019-01-06T20:32:21.035Z,97.58
2019-01-06T20:35:05.506Z,97.34
2019-01-06T20:37:49.920Z,97.43
2019-01-06T20:40:34.398Z,97.29
2019-01-06T20:43:08.184Z,97.29
2019-01-06T20:45:50.742Z,97.31
2019-01-06T20:48:27.749Z,97.40
2019-01-06T20:51:01.296Z,97.48
2019-01-06T20:53:33.137Z,97.57
2019-01-06T20:56:16.218Z,97.53
2019-01-06T20:58:44.230Z,97.69
2019-01-06T21:01:23.981Z,97.53
2019-01-06T21:04:03.533Z,97.60
2019-01-06T21:06:34.252Z,97.64
2019-01-06T21:09:13.887Z,97.60
2019-01-06T21:11:58.449Z,97.31
2019-01-06T21:14:42.887Z,97.40
2019-01-06T21:17:25.657Z,97.71
2019-01-06T21:20:11.542Z,97.59
2019-01-06T21:22:42.219Z,97.58
2019-01-06T21:25:18.735Z,97.53
2019-01-06T21:27:49.188Z,97.60
2019-01-06T21:30:29.445Z,97.69
2019-01-06T21:33:06.245Z,97.63
2019-01-06T21:35:49.074Z,97.63
2019-01-06T21:38:20.841Z,97.55
2019-01-06T21:40:57.538Z,97.69
2019-01-06T21:43:37.446Z,97.79
2019-01-06T21:46:20.016Z,98.89
2019-01-06T21:48:57.014Z,98.21
2019-01-06T21:51:24.925Z,97.75
2019-01-06T21:54:03.607Z,97.34
2019-01-06T21:56:25.432Z,97.18
2019-01-06T21:58:56.361Z,96.90
2019-01-06T22:01:24.283Z,96.81
2019-01-06T22:03:52.229Z,96.76
2019-01-06T22:06:37.048Z,96.65
2019-01-06T22:09:21.755Z,96.54
2019-01-06T22:11:55.547Z,96.89
2019-01-06T22:14:35.628Z,97.27
2019-01-06T22:17:06.388Z,97.37
2019-01-06T22:19:34.306Z,97.40
2019-01-06T22:22:14.251Z,97.49
2019-01-06T22:24:42.246Z,97.28
2019-01-06T22:27:27.818Z,97.55
2019-01-06T22:30:12.375Z,97.40
2019-01-06T22:32:55.152Z,97.68
2019-01-06T22:35:25.947Z,97.92
2019-01-06T22:38:10.221Z,97.75
2019-01-06T22:40:47.012Z,97.40
2019-01-06T22:43:14.971Z,97.23
2019-01-06T22:45:42.910Z,97.60
2019-01-06T22:48:10.835Z,97.32
2019-01-06T22:50:41.367Z,97.27
2019-01-06T22:53:12.054Z,97.72
2019-01-06T22:55:46.141Z,98.11
2019-01-06T22:58:20.378Z,98.05
2019-01-06T23:00:48.290Z,97.78
2019-01-06T23:03:34.222Z,98.08
2019-01-06T23:06:02.115Z,98.18
2019-01-06T23:08:48.093Z,98.37
2019-01-06T23:11:32.403Z,98.53
2019-01-06T23:14:09.166Z,98.90
2019-01-06T23:16:39.599Z,98.91
2019-01-06T23:19:07.619Z,99.37
2019-01-06T23:21:51.944Z,99.66
2019-01-06T23:24:37.891Z,99.73
2019-01-06T23:27:08.579Z,99.54
2019-01-06T23:29:45.057Z,99.33
2019-01-06T23:32:29.208Z,99.00
2019-01-06T23:35:13.431Z,98.92
2019-01-06T23:37:41.386Z,98.89
2019-01-06T23:40:12.216Z,98.82
2019-01-06T23:42:46.002Z,98.76
2019-01-06T23:45:16.542Z,98.64
2019-01-06T23:47:44.575Z,98.87
2019-01-06T23:50:18.072Z,99.04
2019-01-06T23:52:51.622Z,98.59
2019-01-06T23:55:22.408Z,98.54
2019-01-06T23:57:50.422Z,98.94
